Time;durP1;ratioP1;P1;durP2;ratioP2;P2;SDS_P1;SDS_P2;PMS_P1;PMS_P2;Temp;Humidity;BMP_temperature;BMP_pressure;BME280_temperature;BME280_humidity;BME280_pressure;Samples;Min_cycle;Max_cycle;Signal;HPM_P1;HPM_P2
2023/03/14 00:01:45;;;;;;;2.20;0.90;;;;;;;;;;5063249;28;20321;-71
2023/03/14 00:04:10;;;;;;;1.60;0.65;;;;;;;;;;5060218;28;20290;-71
2023/03/14 00:06:35;;;;;;;7.97;0.77;;;;;;;;;;5059542;28;20497;-70
2023/03/14 00:09:00;;;;;;;0.93;0.53;;;;;;;;;;5059443;28;20324;-70
2023/03/14 00:11:26;;;;;;;5.23;1.40;;;;;;;;;;5056898;28;20613;-70
2023/03/14 00:13:51;;;;;;;6.43;1.42;;;;;;;;;;5063381;28;20290;-71
2023/03/14 00:16:16;;;;;;;5.50;0.95;;;;;;;;;;5061711;28;21155;-70
2023/03/14 00:18:42;;;;;;;17.75;1.08;;;;;;;;;;5062244;28;20020;-70
2023/03/14 00:21:08;;;;;;;2.60;0.90;;;;;;;;;;5063512;28;20044;-71
2023/03/14 00:23:34;;;;;;;6.18;0.80;;;;;;;;;;5064822;28;20111;-70
2023/03/14 00:26:00;;;;;;;3.40;1.20;;;;;;;;;;5064288;28;20023;-71
2023/03/14 00:28:26;;;;;;;7.13;1.23;;;;;;;;;;5069291;28;20021;-71
2023/03/14 00:30:51;;;;;;;2.92;0.90;;;;;;;;;;5061584;28;20032;-70
2023/03/14 00:33:16;;;;;;;9.43;1.00;;;;;;;;;;5058110;28;20120;-70
2023/03/14 00:35:41;;;;;;;1.50;0.73;;;;;;;;;;5066656;28;20778;-70
2023/03/14 00:38:06;;;;;;;4.57;0.70;;;;;;;;;;5062586;28;20328;-70
2023/03/14 00:40:31;;;;;;;2.57;0.70;;;;;;;;;;5059576;28;20763;-70
2023/03/14 00:42:57;;;;;;;4.47;1.10;;;;;;;;;;5067560;28;20270;-70
2023/03/14 00:45:22;;;;;;;5.20;0.73;;;;;;;;;;5059128;28;20408;-70
2023/03/14 00:47:47;;;;;;;4.27;1.20;;;;;;;;;;5061593;28;20289;-70
2023/03/14 00:50:12;;;;;;;3.13;0.87;;;;;;;;;;5060619;28;20271;-71
2023/03/14 00:52:37;;;;;;;1.83;0.68;;;;;;;;;;5071420;28;20301;-70
2023/03/14 00:55:03;;;;;;;11.03;0.97;;;;;;;;;;5061266;28;20043;-70
2023/03/14 00:57:28;;;;;;;3.58;0.80;;;;;;;;;;5067859;28;20314;-71
2023/03/14 00:59:53;;;;;;;10.37;1.47;;;;;;;;;;5062655;28;20428;-71
2023/03/14 01:02:19;;;;;;;5.85;1.02;;;;;;;;;;5059489;28;20295;-71
2023/03/14 01:04:44;;;;;;;5.63;1.00;;;;;;;;;;5061460;28;20021;-71
2023/03/14 01:07:09;;;;;;;4.17;1.43;;;;;;;;;;5069328;28;20020;-71
2023/03/14 01:09:34;;;;;;;8.43;1.63;;;;;;;;;;5064396;28;20266;-70
2023/03/14 01:11:59;;;;;;;10.77;1.93;;;;;;;;;;5067288;28;20103;-71
2023/03/14 01:14:25;;;;;;;10.00;1.50;;;;;;;;;;5066841;28;20327;-70
2023/03/14 01:16:50;;;;;;;8.13;1.17;;;;;;;;;;5065564;28;20025;-70
2023/03/14 01:19:15;;;;;;;6.70;1.13;;;;;;;;;;5066414;28;20745;-67
2023/03/14 01:21:40;;;;;;;6.82;1.75;;;;;;;;;;5064986;28;20340;-67
2023/03/14 01:24:06;;;;;;;8.68;2.00;;;;;;;;;;5061313;28;20024;-67
2023/03/14 01:26:32;;;;;;;10.68;2.25;;;;;;;;;;5060433;28;20373;-68
2023/03/14 01:28:58;;;;;;;4.93;0.85;;;;;;;;;;5056926;28;20036;-68
2023/03/14 01:31:23;;;;;;;5.78;0.82;;;;;;;;;;5061740;28;20016;-68
2023/03/14 01:33:49;;;;;;;5.93;0.50;;;;;;;;;;5060189;28;20024;-68
2023/03/14 01:36:14;;;;;;;5.40;0.85;;;;;;;;;;5062381;28;20099;-68
2023/03/14 01:38:40;;;;;;;5.32;0.98;;;;;;;;;;5069975;28;20023;-68
2023/03/14 01:41:06;;;;;;;4.15;0.57;;;;;;;;;;5065145;28;20105;-67
2023/03/14 01:43:31;;;;;;;5.13;1.27;;;;;;;;;;5067445;28;20035;-67
2023/03/14 01:46:05;;;;;;;2.70;0.65;;;;;;;;;;5064141;28;20117;-68
2023/03/14 01:48:51;;;;;;;4.38;1.05;;;;;;;;;;5065625;28;20089;-68
2023/03/14 01:51:19;;;;;;;6.47;0.55;;;;;;;;;;5048627;28;20681;-68
2023/03/14 01:53:44;;;;;;;3.25;0.82;;;;;;;;;;5065133;28;20051;-68
2023/03/14 01:56:11;;;;;;;4.78;0.80;;;;;;;;;;5063938;28;20510;-68
2023/03/14 01:58:36;;;;;;;5.40;0.70;;;;;;;;;;5060310;28;20381;-68
2023/03/14 02:01:03;;;;;;;4.90;1.80;;;;;;;;;;5058382;28;20013;-68
2023/03/14 02:03:29;;;;;;;4.13;0.65;;;;;;;;;;5060771;28;20024;-68
2023/03/14 02:05:55;;;;;;;6.18;0.98;;;;;;;;;;5067954;28;20091;-68
2023/03/14 02:08:21;;;;;;;6.00;1.00;;;;;;;;;;5065724;28;20032;-68
2023/03/14 02:10:48;;;;;;;17.05;1.58;;;;;;;;;;5067910;28;20505;-68
2023/03/14 02:13:14;;;;;;;5.32;0.55;;;;;;;;;;5064672;28;20029;-68
2023/03/14 02:15:39;;;;;;;12.18;1.15;;;;;;;;;;5072730;28;20023;-68
2023/03/14 02:18:05;;;;;;;4.93;1.42;;;;;;;;;;5066709;28;20025;-68
2023/03/14 02:20:33;;;;;;;7.38;1.35;;;;;;;;;;5065398;28;20028;-68
2023/03/14 02:22:58;;;;;;;10.85;0.80;;;;;;;;;;5063474;28;20020;-68
2023/03/14 02:25:29;;;;;;;4.25;0.70;;;;;;;;;;5061517;28;20085;-68
2023/03/14 02:27:55;;;;;;;4.30;1.90;;;;;;;;;;5067486;28;20024;-68
2023/03/14 02:30:21;;;;;;;7.63;1.27;;;;;;;;;;5058473;28;20031;-68
2023/03/14 02:32:47;;;;;;;8.60;0.80;;;;;;;;;;5065709;28;20015;-68
2023/03/14 02:35:15;;;;;;;4.07;0.90;;;;;;;;;;5060172;28;20082;-68
2023/03/14 02:37:43;;;;;;;7.05;1.30;;;;;;;;;;5061953;28;20500;-68
2023/03/14 02:40:08;;;;;;;5.53;0.90;;;;;;;;;;5062076;28;20021;-68
2023/03/14 02:42:34;;;;;;;4.90;0.82;;;;;;;;;;5069491;28;20032;-68
2023/03/14 02:45:08;;;;;;;10.43;2.10;;;;;;;;;;5061316;28;20492;-68
2023/03/14 02:47:33;;;;;;;4.10;0.70;;;;;;;;;;5066102;28;20269;-68
2023/03/14 02:50:01;;;;;;;3.80;0.80;;;;;;;;;;5059608;28;20033;-68
2023/03/14 02:52:26;;;;;;;3.83;0.60;;;;;;;;;;5058823;28;20162;-68
2023/03/14 02:54:52;;;;;;;2.63;0.67;;;;;;;;;;5062796;28;20099;-68
2023/03/14 02:57:17;;;;;;;8.53;0.70;;;;;;;;;;5060574;28;20285;-68
2023/03/14 02:59:42;;;;;;;4.57;0.60;;;;;;;;;;5069338;28;20262;-68
2023/03/14 03:02:07;;;;;;;4.07;0.60;;;;;;;;;;5062724;28;20345;-68
2023/03/14 03:04:32;;;;;;;3.87;0.33;;;;;;;;;;5060547;28;20056;-68
2023/03/14 03:06:57;;;;;;;3.37;0.70;;;;;;;;;;5063281;28;20267;-68
2023/03/14 03:09:23;;;;;;;0.63;0.30;;;;;;;;;;5060892;28;20728;-68
2023/03/14 03:11:48;;;;;;;2.95;0.50;;;;;;;;;;5066568;28;20283;-68
2023/03/14 03:14:13;;;;;;;3.23;0.97;;;;;;;;;;5065275;28;20009;-68
2023/03/14 03:16:38;;;;;;;4.45;1.00;;;;;;;;;;5060349;28;20286;-68
2023/03/14 03:19:03;;;;;;;2.63;0.60;;;;;;;;;;5063979;28;20016;-68
2023/03/14 03:21:28;;;;;;;5.77;0.90;;;;;;;;;;5060440;28;20036;-68
2023/03/14 03:23:54;;;;;;;3.13;0.40;;;;;;;;;;5062750;28;20285;-68
2023/03/14 03:26:19;;;;;;;2.03;0.87;;;;;;;;;;5067591;28;20286;-68
2023/03/14 03:28:44;;;;;;;6.33;1.17;;;;;;;;;;5061727;28;20258;-68
2023/03/14 03:31:10;;;;;;;5.33;0.77;;;;;;;;;;5057996;28;20354;-68
2023/03/14 03:33:36;;;;;;;8.60;0.75;;;;;;;;;;5067798;28;20286;-68
2023/03/14 03:36:01;;;;;;;3.72;1.00;;;;;;;;;;5063095;28;20025;-68
2023/03/14 03:38:26;;;;;;;7.82;1.17;;;;;;;;;;5062676;28;20461;-68
2023/03/14 03:40:51;;;;;;;2.87;0.40;;;;;;;;;;5063739;28;20028;-68
2023/03/14 03:43:18;;;;;;;5.88;0.50;;;;;;;;;;5054576;28;20279;-67
2023/03/14 03:45:43;;;;;;;4.82;1.15;;;;;;;;;;5057152;28;20426;-67
2023/03/14 03:48:08;;;;;;;4.33;1.03;;;;;;;;;;5064743;28;20108;-67
2023/03/14 03:50:33;;;;;;;8.43;1.63;;;;;;;;;;5060652;28;20271;-67
2023/03/14 03:52:59;;;;;;;11.23;1.35;;;;;;;;;;5063575;28;20029;-67
2023/03/14 03:55:25;;;;;;;7.93;0.65;;;;;;;;;;5067746;28;20036;-69
2023/03/14 03:57:50;;;;;;;9.32;1.23;;;;;;;;;;5062705;28;20027;-67
2023/03/14 04:00:16;;;;;;;8.67;0.93;;;;;;;;;;5066318;28;20016;-69
2023/03/14 04:02:41;;;;;;;2.95;0.95;;;;;;;;;;5064058;28;20271;-67
2023/03/14 04:05:06;;;;;;;1.42;0.65;;;;;;;;;;5058978;28;20036;-67
2023/03/14 04:07:32;;;;;;;5.95;1.27;;;;;;;;;;5068852;28;20020;-67
2023/03/14 04:09:57;;;;;;;9.68;1.25;;;;;;;;;;5061783;28;20070;-67
2023/03/14 04:12:22;;;;;;;4.43;0.60;;;;;;;;;;5061443;28;20025;-67
2023/03/14 04:14:48;;;;;;;7.83;0.83;;;;;;;;;;5070260;28;20035;-67
2023/03/14 04:17:13;;;;;;;3.83;0.87;;;;;;;;;;5059378;28;20264;-67
2023/03/14 04:19:38;;;;;;;2.80;0.73;;;;;;;;;;5062382;28;20750;-67
2023/03/14 04:22:03;;;;;;;14.65;2.45;;;;;;;;;;5057632;28;20027;-67
2023/03/14 04:24:28;;;;;;;5.07;0.87;;;;;;;;;;5067997;28;20513;-67
2023/03/14 04:26:54;;;;;;;5.93;1.08;;;;;;;;;;5070078;28;20262;-67
2023/03/14 04:29:19;;;;;;;11.95;1.50;;;;;;;;;;5061124;28;20036;-67
2023/03/14 04:31:44;;;;;;;3.47;1.08;;;;;;;;;;5072836;28;20016;-67
2023/03/14 04:34:09;;;;;;;6.00;1.97;;;;;;;;;;5063811;28;20013;-67
2023/03/14 04:36:34;;;;;;;4.03;1.35;;;;;;;;;;5070038;28;20369;-67
2023/03/14 04:39:00;;;;;;;1.17;0.60;;;;;;;;;;5059688;28;20027;-67
2023/03/14 04:41:25;;;;;;;3.90;1.08;;;;;;;;;;5065003;28;20059;-68
2023/03/14 04:43:50;;;;;;;11.63;1.30;;;;;;;;;;5064088;28;20162;-67
2023/03/14 04:46:15;;;;;;;12.87;1.77;;;;;;;;;;5062877;28;20636;-67
2023/03/14 04:48:40;;;;;;;3.30;0.70;;;;;;;;;;5065350;28;20429;-68
2023/03/14 04:51:06;;;;;;;13.03;1.47;;;;;;;;;;5069655;28;20146;-67
2023/03/14 04:53:31;;;;;;;6.20;1.17;;;;;;;;;;5063787;28;20309;-68
2023/03/14 04:55:56;;;;;;;7.22;0.90;;;;;;;;;;5061934;28;20561;-68
2023/03/14 04:58:22;;;;;;;2.28;0.77;;;;;;;;;;5062472;28;20028;-67
2023/03/14 05:00:48;;;;;;;4.15;1.08;;;;;;;;;;5059092;28;20032;-68
2023/03/14 05:03:17;;;;;;;3.55;1.15;;;;;;;;;;5067231;28;20025;-67
2023/03/14 05:05:42;;;;;;;8.25;1.00;;;;;;;;;;5063770;28;20041;-68
2023/03/14 05:08:07;;;;;;;3.05;1.00;;;;;;;;;;5060228;28;20096;-67
2023/03/14 05:10:32;;;;;;;9.95;1.95;;;;;;;;;;5067485;28;20024;-67
2023/03/14 05:12:57;;;;;;;2.77;0.87;;;;;;;;;;5065434;28;20037;-68
2023/03/14 05:15:23;;;;;;;9.50;1.00;;;;;;;;;;5064996;28;20273;-68
2023/03/14 05:17:49;;;;;;;6.82;1.02;;;;;;;;;;5066136;28;20100;-68
2023/03/14 05:20:14;;;;;;;10.15;1.17;;;;;;;;;;5068737;28;20016;-68
2023/03/14 05:22:39;;;;;;;0.90;0.60;;;;;;;;;;5061526;28;20036;-68
2023/03/14 05:25:05;;;;;;;9.30;0.93;;;;;;;;;;5068786;28;20497;-68
2023/03/14 05:27:30;;;;;;;7.70;0.82;;;;;;;;;;5065861;28;20266;-67
2023/03/14 05:29:55;;;;;;;2.38;0.98;;;;;;;;;;5063196;28;20070;-68
2023/03/14 05:32:20;;;;;;;2.20;0.80;;;;;;;;;;5064476;28;20036;-68
2023/03/14 05:34:46;;;;;;;5.97;0.90;;;;;;;;;;5067328;28;20274;-68
2023/03/14 05:37:11;;;;;;;4.30;0.73;;;;;;;;;;5063901;28;20017;-68
2023/03/14 05:39:36;;;;;;;2.63;0.73;;;;;;;;;;5060334;28;20504;-68
2023/03/14 05:42:01;;;;;;;3.53;1.30;;;;;;;;;;5067301;28;20345;-68
2023/03/14 05:44:26;;;;;;;0.40;0.22;;;;;;;;;;5063252;28;20400;-68
2023/03/14 05:46:52;;;;;;;3.67;0.70;;;;;;;;;;5068879;28;20029;-68
2023/03/14 05:49:17;;;;;;;0.27;0.23;;;;;;;;;;5063518;28;20032;-68
2023/03/14 05:51:42;;;;;;;2.30;0.38;;;;;;;;;;5064527;28;20349;-68
2023/03/14 05:54:07;;;;;;;5.95;0.60;;;;;;;;;;5061856;28;20228;-68
2023/03/14 05:56:33;;;;;;;2.27;0.47;;;;;;;;;;5064352;28;20025;-68
2023/03/14 05:58:58;;;;;;;4.10;0.75;;;;;;;;;;5057462;28;20281;-68
2023/03/14 06:01:23;;;;;;;2.83;0.55;;;;;;;;;;5069382;28;20083;-68
2023/03/14 06:03:48;;;;;;;1.02;0.52;;;;;;;;;;5066403;28;20032;-68
2023/03/14 06:06:14;;;;;;;0.53;0.30;;;;;;;;;;5062209;28;20107;-68
2023/03/14 06:08:39;;;;;;;3.20;0.60;;;;;;;;;;5067457;28;20266;-68
2023/03/14 06:11:04;;;;;;;4.57;0.35;;;;;;;;;;5061752;28;20604;-68
2023/03/14 06:13:29;;;;;;;2.40;0.10;;;;;;;;;;5060508;28;20033;-68
2023/03/14 06:15:55;;;;;;;5.68;0.57;;;;;;;;;;5060004;28;20037;-67
2023/03/14 06:18:20;;;;;;;0.95;0.20;;;;;;;;;;5068275;28;20040;-67
2023/03/14 06:20:45;;;;;;;2.10;0.50;;;;;;;;;;5060660;28;20008;-67
2023/03/14 06:23:10;;;;;;;1.33;0.32;;;;;;;;;;5054472;28;20275;-67
2023/03/14 06:25:36;;;;;;;2.53;0.40;;;;;;;;;;5059804;28;20028;-67
2023/03/14 06:28:01;;;;;;;2.00;0.28;;;;;;;;;;5053230;28;20021;-67
2023/03/14 06:30:26;;;;;;;0.35;0.22;;;;;;;;;;5058239;28;20028;-67
2023/03/14 06:32:51;;;;;;;0.43;0.20;;;;;;;;;;5060353;28;20115;-68
2023/03/14 06:35:16;;;;;;;1.17;0.38;;;;;;;;;;5058437;28;20016;-68
2023/03/14 06:37:42;;;;;;;2.00;0.30;;;;;;;;;;5060660;28;20035;-68
2023/03/14 06:40:08;;;;;;;2.50;0.32;;;;;;;;;;5059278;28;20348;-68
2023/03/14 06:42:33;;;;;;;3.00;0.40;;;;;;;;;;5058500;28;20504;-68
2023/03/14 06:44:59;;;;;;;0.80;0.10;;;;;;;;;;5058215;28;20029;-68
2023/03/14 06:47:24;;;;;;;1.05;0.30;;;;;;;;;;5055492;28;20663;-68
2023/03/14 06:49:49;;;;;;;1.35;0.40;;;;;;;;;;5057821;28;20481;-69
2023/03/14 06:52:14;;;;;;;1.20;0.20;;;;;;;;;;5051387;28;20017;-69
2023/03/14 06:54:39;;;;;;;1.00;0.30;;;;;;;;;;5051374;28;20367;-69
2023/03/14 06:57:04;;;;;;;3.83;0.43;;;;;;;;;;5053438;28;20271;-69
2023/03/14 06:59:30;;;;;;;1.30;0.20;;;;;;;;;;5055801;28;20295;-68
2023/03/14 07:01:55;;;;;;;0.25;0.20;;;;;;;;;;5054982;28;20275;-68
2023/03/14 07:04:20;;;;;;;1.20;0.30;;;;;;;;;;5051929;28;20090;-68
2023/03/14 07:06:46;;;;;;;2.23;0.60;;;;;;;;;;5065092;28;20277;-68
2023/03/14 07:09:11;;;;;;;0.20;0.20;;;;;;;;;;5062691;28;20771;-68
2023/03/14 07:11:37;;;;;;;1.65;0.25;;;;;;;;;;5062189;28;20389;-68
2023/03/14 07:14:02;;;;;;;0.43;0.20;;;;;;;;;;5059548;28;20078;-69
2023/03/14 07:16:31;;;;;;;1.25;0.40;;;;;;;;;;5061736;28;20013;-69
2023/03/14 07:18:56;;;;;;;0.77;0.40;;;;;;;;;;5064127;28;20020;-68
2023/03/14 07:21:21;;;;;;;2.17;0.57;;;;;;;;;;5053413;28;20013;-68
2023/03/14 07:23:46;;;;;;;1.83;0.47;;;;;;;;;;5058145;28;20146;-68
2023/03/14 07:26:11;;;;;;;2.97;0.60;;;;;;;;;;5052098;28;20302;-69
2023/03/14 07:28:36;;;;;;;2.20;0.30;;;;;;;;;;5058720;28;20393;-68
2023/03/14 07:31:02;;;;;;;2.43;0.30;;;;;;;;;;5046403;28;20286;-68
2023/03/14 07:33:27;;;;;;;5.50;0.93;;;;;;;;;;5062489;28;20291;-68
2023/03/14 07:35:52;;;;;;;0.52;0.20;;;;;;;;;;5058082;28;20013;-68
2023/03/14 07:38:17;;;;;;;4.43;0.50;;;;;;;;;;5054398;28;20036;-68
2023/03/14 07:40:43;;;;;;;1.23;0.50;;;;;;;;;;5053361;28;20078;-68
2023/03/14 07:43:08;;;;;;;3.00;0.57;;;;;;;;;;5056603;28;20776;-68
2023/03/14 07:45:33;;;;;;;1.55;0.30;;;;;;;;;;5059655;28;20114;-68
2023/03/14 07:47:58;;;;;;;2.38;0.20;;;;;;;;;;5056043;28;20025;-68
2023/03/14 07:50:24;;;;;;;3.00;0.75;;;;;;;;;;5054230;28;20029;-68
2023/03/14 07:52:49;;;;;;;1.40;0.40;;;;;;;;;;5060658;28;20021;-68
2023/03/14 07:55:14;;;;;;;0.47;0.22;;;;;;;;;;5063603;28;20022;-68
2023/03/14 07:57:40;;;;;;;0.75;0.40;;;;;;;;;;5065594;28;20068;-68
2023/03/14 08:00:05;;;;;;;1.90;0.45;;;;;;;;;;5059067;28;20135;-68
2023/03/14 08:02:30;;;;;;;0.73;0.35;;;;;;;;;;5055355;28;20095;-68
2023/03/14 08:04:56;;;;;;;5.00;0.60;;;;;;;;;;5056964;28;20033;-68
2023/03/14 08:07:21;;;;;;;4.38;0.40;;;;;;;;;;5063429;28;20365;-68
2023/03/14 08:09:46;;;;;;;0.57;0.38;;;;;;;;;;5062404;28;20028;-68
2023/03/14 08:12:11;;;;;;;2.00;0.60;;;;;;;;;;5055000;28;20067;-68
2023/03/14 08:14:36;;;;;;;0.93;0.30;;;;;;;;;;5053703;28;20838;-68
2023/03/14 08:17:02;;;;;;;4.23;0.50;;;;;;;;;;5047034;28;20032;-68
2023/03/14 08:19:27;;;;;;;1.48;0.30;;;;;;;;;;5050679;28;20270;-68
2023/03/14 08:21:52;;;;;;;1.13;0.30;;;;;;;;;;5057068;28;20013;-69
2023/03/14 08:24:18;;;;;;;2.10;0.38;;;;;;;;;;5060166;28;20019;-69
2023/03/14 08:26:43;;;;;;;0.88;0.30;;;;;;;;;;5060114;28;20024;-68
2023/03/14 08:29:08;;;;;;;1.87;0.67;;;;;;;;;;5066639;28;20385;-68
2023/03/14 08:31:36;;;;;;;0.80;0.20;;;;;;;;;;5054851;28;20344;-69
2023/03/14 08:34:02;;;;;;;1.27;0.32;;;;;;;;;;5063214;28;20290;-68
2023/03/14 08:36:27;;;;;;;4.95;0.40;;;;;;;;;;5069683;28;20023;-68
2023/03/14 08:38:52;;;;;;;0.75;0.30;;;;;;;;;;5073689;28;20025;-69
2023/03/14 08:41:17;;;;;;;1.92;0.40;;;;;;;;;;5069389;28;20024;-68
2023/03/14 08:43:43;;;;;;;1.70;0.30;;;;;;;;;;5058962;28;20040;-68
2023/03/14 08:46:08;;;;;;;0.15;0.15;;;;;;;;;;5062706;28;20295;-69
2023/03/14 08:48:33;;;;;;;0.82;0.40;;;;;;;;;;5069978;28;20035;-68
2023/03/14 08:51:10;;;;;;;0.53;0.20;;;;;;;;;;5070553;28;20036;-67
2023/03/14 08:53:35;;;;;;;2.47;0.22;;;;;;;;;;5065553;28;20293;-68
2023/03/14 08:56:00;;;;;;;1.10;0.40;;;;;;;;;;5064745;28;20531;-68
2023/03/14 08:58:26;;;;;;;0.50;0.30;;;;;;;;;;5061065;28;20055;-68
2023/03/14 09:00:51;;;;;;;4.63;0.63;;;;;;;;;;5065743;28;20101;-68
2023/03/14 09:03:16;;;;;;;0.60;0.40;;;;;;;;;;5061354;28;20278;-68
2023/03/14 09:05:41;;;;;;;2.90;0.80;;;;;;;;;;5064760;28;20024;-68
2023/03/14 09:08:06;;;;;;;0.30;0.30;;;;;;;;;;5059206;28;20274;-68
2023/03/14 09:10:32;;;;;;;0.82;0.50;;;;;;;;;;5062300;28;20793;-68
2023/03/14 09:12:58;;;;;;;2.10;0.63;;;;;;;;;;5060451;28;20351;-68
2023/03/14 09:15:23;;;;;;;0.60;0.30;;;;;;;;;;5061762;28;20270;-68
2023/03/14 09:17:48;;;;;;;0.70;0.47;;;;;;;;;;5058594;28;20031;-68
2023/03/14 09:20:14;;;;;;;0.68;0.40;;;;;;;;;;5065769;28;20013;-68
2023/03/14 09:22:39;;;;;;;0.93;0.30;;;;;;;;;;5057057;28;20021;-68
2023/03/14 09:25:05;;;;;;;0.40;0.25;;;;;;;;;;5065100;28;20027;-68
2023/03/14 09:27:30;;;;;;;0.30;0.30;;;;;;;;;;5064439;28;20040;-69
2023/03/14 09:29:55;;;;;;;2.07;0.30;;;;;;;;;;5055815;28;20831;-68
2023/03/14 09:32:20;;;;;;;1.63;0.40;;;;;;;;;;5057634;28;20348;-68
2023/03/14 09:34:45;;;;;;;1.53;0.70;;;;;;;;;;5063263;28;20275;-69
2023/03/14 09:37:11;;;;;;;0.37;0.37;;;;;;;;;;5056385;28;20278;-68
2023/03/14 09:39:36;;;;;;;0.10;0.10;;;;;;;;;;5067135;28;20269;-69
2023/03/14 09:42:03;;;;;;;3.70;0.60;;;;;;;;;;5071453;28;20039;-68
2023/03/14 09:44:39;;;;;;;5.20;0.82;;;;;;;;;;5068950;28;20275;-68
2023/03/14 09:47:05;;;;;;;3.63;0.60;;;;;;;;;;5071101;28;20017;-68
2023/03/14 09:49:34;;;;;;;4.20;0.70;;;;;;;;;;5067192;28;20024;-69
2023/03/14 09:52:01;;;;;;;5.07;0.50;;;;;;;;;;5071581;28;20377;-68
2023/03/14 09:54:26;;;;;;;0.85;0.45;;;;;;;;;;5065035;28;20017;-68
2023/03/14 09:56:52;;;;;;;5.47;0.63;;;;;;;;;;5058946;28;20021;-68
2023/03/14 09:59:17;;;;;;;1.20;0.40;;;;;;;;;;5059417;28;20298;-69
2023/03/14 10:01:42;;;;;;;3.55;0.90;;;;;;;;;;5062830;28;20020;-68
2023/03/14 10:04:13;;;;;;;1.85;0.55;;;;;;;;;;5059820;28;20063;-68
2023/03/14 10:06:38;;;;;;;1.42;0.60;;;;;;;;;;5061750;28;20124;-68
2023/03/14 10:09:05;;;;;;;3.70;0.83;;;;;;;;;;5062569;28;20297;-68
2023/03/14 10:11:30;;;;;;;3.67;0.70;;;;;;;;;;5055829;28;20319;-68
2023/03/14 10:14:07;;;;;;;2.05;0.80;;;;;;;;;;5061465;28;20096;-69
2023/03/14 10:16:33;;;;;;;1.27;0.65;;;;;;;;;;5066462;28;20157;-70
2023/03/14 10:19:06;;;;;;;0.85;0.50;;;;;;;;;;5060197;28;20021;-70
2023/03/14 10:21:35;;;;;;;2.08;0.90;;;;;;;;;;5055820;28;20037;-70
2023/03/14 10:24:20;;;;;;;2.13;0.95;;;;;;;;;;5054489;28;20135;-69
2023/03/14 10:26:50;;;;;;;3.80;1.00;;;;;;;;;;5052562;28;20167;-69
2023/03/14 10:29:16;;;;;;;2.50;1.30;;;;;;;;;;5063903;28;20087;-70
2023/03/14 10:31:49;;;;;;;4.68;1.27;;;;;;;;;;5058040;28;20028;-69
2023/03/14 10:34:16;;;;;;;2.10;1.10;;;;;;;;;;5052650;28;20025;-70
2023/03/14 10:36:42;;;;;;;2.38;0.75;;;;;;;;;;5068776;28;20043;-70
2023/03/14 10:39:16;;;;;;;4.25;0.80;;;;;;;;;;5058837;28;20478;-70
2023/03/14 10:41:46;;;;;;;7.85;1.30;;;;;;;;;;5057449;28;20025;-69
2023/03/14 10:44:12;;;;;;;2.30;0.90;;;;;;;;;;5061775;28;20025;-70
2023/03/14 10:46:37;;;;;;;3.92;1.35;;;;;;;;;;5060040;28;20032;-70
2023/03/14 10:49:06;;;;;;;2.90;1.60;;;;;;;;;;5061381;28;20043;-69
2023/03/14 10:51:31;;;;;;;2.85;2.40;;;;;;;;;;5059026;28;20509;-67
2023/03/14 10:53:58;;;;;;;4.60;2.30;;;;;;;;;;5057798;28;20037;-67
2023/03/14 10:56:24;;;;;;;3.28;2.30;;;;;;;;;;5059579;28;20268;-67
2023/03/14 10:58:50;;;;;;;4.32;2.30;;;;;;;;;;5049290;28;20021;-67
2023/03/14 11:01:15;;;;;;;8.70;2.75;;;;;;;;;;5059909;28;20028;-67
2023/03/14 11:03:43;;;;;;;7.00;3.00;;;;;;;;;;5063276;28;20020;-67
2023/03/14 11:06:18;;;;;;;6.82;2.90;;;;;;;;;;5061805;28;20631;-69
2023/03/14 11:09:06;;;;;;;6.25;2.63;;;;;;;;;;5051589;28;20021;-68
2023/03/14 11:11:31;;;;;;;3.72;2.60;;;;;;;;;;5056920;28;20030;-68
2023/03/14 11:14:08;;;;;;;4.60;2.40;;;;;;;;;;5061671;28;20036;-68
2023/03/14 11:16:52;;;;;;;4.90;2.10;;;;;;;;;;5055036;28;20074;-68
2023/03/14 11:19:21;;;;;;;3.70;1.90;;;;;;;;;;5060857;28;20031;-68
2023/03/14 11:21:58;;;;;;;5.78;1.73;;;;;;;;;;5058709;28;20017;-68
2023/03/14 11:24:32;;;;;;;5.30;1.48;;;;;;;;;;5058460;28;20017;-68
2023/03/14 11:26:57;;;;;;;2.97;1.40;;;;;;;;;;5060453;28;20017;-68
2023/03/14 11:29:31;;;;;;;2.08;0.90;;;;;;;;;;5059593;28;20021;-68
2023/03/14 11:31:59;;;;;;;5.38;1.30;;;;;;;;;;5053312;28;20271;-68
2023/03/14 11:34:28;;;;;;;2.20;1.15;;;;;;;;;;5059181;28;20021;-68
2023/03/14 11:37:01;;;;;;;8.63;1.75;;;;;;;;;;5054288;28;20036;-68
2023/03/14 11:39:29;;;;;;;4.30;1.05;;;;;;;;;;5063736;28;20039;-68
2023/03/14 11:41:57;;;;;;;1.88;0.90;;;;;;;;;;5053317;28;20021;-68
2023/03/14 11:44:25;;;;;;;3.45;1.05;;;;;;;;;;5060315;28;20103;-68
2023/03/14 11:46:56;;;;;;;2.55;1.80;;;;;;;;;;5065630;28;20021;-68
2023/03/14 11:49:22;;;;;;;9.40;1.42;;;;;;;;;;5061274;28;20032;-68
2023/03/14 11:51:48;;;;;;;2.17;0.90;;;;;;;;;;5058218;28;20381;-68
2023/03/14 11:54:46;;;;;;;9.95;2.85;;;;;;;;;;5055280;28;20028;-68
2023/03/14 11:57:19;;;;;;;6.28;1.60;;;;;;;;;;5041585;28;20029;-68
2023/03/14 12:00:04;;;;;;;7.15;1.77;;;;;;;;;;5056920;28;20103;-68
2023/03/14 12:02:29;;;;;;;5.13;1.60;;;;;;;;;;5063470;28;20098;-68
2023/03/14 12:05:00;;;;;;;15.52;4.15;;;;;;;;;;5059359;28;20485;-68
2023/03/14 12:07:41;;;;;;;8.60;2.40;;;;;;;;;;5063080;28;20267;-68
2023/03/14 12:10:07;;;;;;;6.00;3.10;;;;;;;;;;5060799;28;20013;-68
2023/03/14 12:12:32;;;;;;;15.27;3.40;;;;;;;;;;5060118;28;20097;-68
2023/03/14 12:14:59;;;;;;;10.73;4.65;;;;;;;;;;5063829;28;20025;-68
2023/03/14 12:17:25;;;;;;;7.20;3.50;;;;;;;;;;5066636;28;20016;-68
2023/03/14 12:20:05;;;;;;;7.15;3.15;;;;;;;;;;5064676;28;20581;-69
2023/03/14 12:22:32;;;;;;;9.90;3.72;;;;;;;;;;5061348;28;20735;-68
2023/03/14 12:25:04;;;;;;;10.35;3.72;;;;;;;;;;5065664;28;20485;-68
2023/03/14 12:27:46;;;;;;;10.45;3.88;;;;;;;;;;5061488;28;20098;-68
2023/03/14 12:30:16;;;;;;;7.18;3.55;;;;;;;;;;5063316;28;20027;-68
2023/03/14 12:32:41;;;;;;;7.55;3.83;;;;;;;;;;5064037;28;20032;-68
2023/03/14 12:35:26;;;;;;;9.45;3.90;;;;;;;;;;5062305;28;20501;-68
2023/03/14 12:37:54;;;;;;;17.80;3.97;;;;;;;;;;5062853;28;20025;-68
2023/03/14 12:40:39;;;;;;;15.93;4.13;;;;;;;;;;5062725;28;20589;-68
2023/03/14 12:43:23;;;;;;;10.25;4.20;;;;;;;;;;5057819;28;20122;-68
2023/03/14 12:46:07;;;;;;;10.77;4.00;;;;;;;;;;5060531;28;20422;-69
2023/03/14 12:48:32;;;;;;;8.75;4.20;;;;;;;;;;5063489;28;20024;-69
2023/03/14 12:51:00;;;;;;;10.13;4.75;;;;;;;;;;5058775;28;21505;-68
2023/03/14 12:53:27;;;;;;;9.68;3.90;;;;;;;;;;5065185;28;20453;-68
2023/03/14 12:55:59;;;;;;;6.80;3.22;;;;;;;;;;5056209;28;20105;-68
2023/03/14 12:58:27;;;;;;;9.57;3.17;;;;;;;;;;5055260;28;20470;-69
2023/03/14 13:01:03;;;;;;;7.43;3.10;;;;;;;;;;5061771;28;20020;-69
2023/03/14 13:03:45;;;;;;;9.98;3.58;;;;;;;;;;5058644;28;20039;-68
2023/03/14 13:06:11;;;;;;;7.00;3.20;;;;;;;;;;5061523;28;20524;-68
2023/03/14 13:08:39;;;;;;;5.20;2.60;;;;;;;;;;5060152;28;20367;-69
2023/03/14 13:11:12;;;;;;;10.95;3.28;;;;;;;;;;5066436;28;20527;-69
2023/03/14 13:13:41;;;;;;;9.07;2.70;;;;;;;;;;5061720;28;20642;-68
2023/03/14 13:16:12;;;;;;;10.65;2.90;;;;;;;;;;5063991;28;20424;-68
2023/03/14 13:18:41;;;;;;;11.20;3.35;;;;;;;;;;5063676;28;20488;-68
2023/03/14 13:21:21;;;;;;;9.03;3.27;;;;;;;;;;5063198;28;20020;-68
2023/03/14 13:23:56;;;;;;;9.15;3.63;;;;;;;;;;5060463;28;20497;-68
2023/03/14 13:26:23;;;;;;;12.38;3.25;;;;;;;;;;5063677;28;20028;-68
2023/03/14 13:28:48;;;;;;;13.30;2.45;;;;;;;;;;5058340;28;20025;-68
2023/03/14 13:31:21;;;;;;;7.57;2.80;;;;;;;;;;5060363;28;20036;-68
2023/03/14 13:33:46;;;;;;;12.27;2.80;;;;;;;;;;5064694;28;20029;-68
2023/03/14 13:36:11;;;;;;;13.20;3.03;;;;;;;;;;5063798;28;20081;-68
2023/03/14 13:38:36;;;;;;;12.43;2.67;;;;;;;;;;5062739;28;20277;-68
2023/03/14 13:41:06;;;;;;;9.33;2.00;;;;;;;;;;5059679;28;20104;-70
2023/03/14 13:43:38;;;;;;;9.60;2.00;;;;;;;;;;5059891;28;20296;-68
2023/03/14 13:46:13;;;;;;;9.23;2.70;;;;;;;;;;5061230;28;20090;-68
2023/03/14 13:48:42;;;;;;;9.30;2.13;;;;;;;;;;5058669;28;20028;-70
2023/03/14 13:51:10;;;;;;;12.70;2.28;;;;;;;;;;5066877;28;20405;-68
2023/03/14 13:53:43;;;;;;;15.05;2.20;;;;;;;;;;5060742;28;20027;-68
2023/03/14 13:56:10;;;;;;;11.70;1.88;;;;;;;;;;5066740;28;20703;-68
2023/03/14 13:58:36;;;;;;;12.43;2.30;;;;;;;;;;5054820;28;20381;-68
2023/03/14 14:01:03;;;;;;;12.88;2.47;;;;;;;;;;5057040;28;20115;-68
2023/03/14 14:03:30;;;;;;;23.70;4.57;;;;;;;;;;5066628;28;20048;-69
2023/03/14 14:05:57;;;;;;;9.48;2.53;;;;;;;;;;5060863;28;20016;-69
2023/03/14 14:08:23;;;;;;;18.42;3.72;;;;;;;;;;5060645;28;20024;-68
2023/03/14 14:10:49;;;;;;;16.58;3.17;;;;;;;;;;5059579;28;20651;-69
2023/03/14 14:13:18;;;;;;;11.80;3.13;;;;;;;;;;5065285;28;20025;-68
2023/03/14 14:15:44;;;;;;;21.45;4.00;;;;;;;;;;5063949;28;20017;-69
2023/03/14 14:18:12;;;;;;;7.88;2.05;;;;;;;;;;5067732;28;20028;-69
2023/03/14 14:20:39;;;;;;;10.82;2.42;;;;;;;;;;5055900;28;20413;-68
2023/03/14 14:23:06;;;;;;;20.98;2.17;;;;;;;;;;5062268;28;20762;-68
2023/03/14 14:25:32;;;;;;;15.43;1.90;;;;;;;;;;5061465;28;20037;-69
2023/03/14 14:27:57;;;;;;;16.58;2.25;;;;;;;;;;5062459;28;20113;-68
2023/03/14 14:30:30;;;;;;;22.95;2.58;;;;;;;;;;5059975;28;20100;-69
2023/03/14 14:33:10;;;;;;;17.75;3.05;;;;;;;;;;5058715;28;20029;-68
2023/03/14 14:35:35;;;;;;;12.73;2.27;;;;;;;;;;5059376;28;20028;-68
2023/03/14 14:38:02;;;;;;;23.63;4.05;;;;;;;;;;5059940;28;20017;-69
2023/03/14 14:40:28;;;;;;;11.10;2.58;;;;;;;;;;5063663;28;20393;-68